Kezdőlap
METAR-TAF:

METAR-TAF

Repülőterek :

New Richmond Regional Airport

New Richmond, Wisconsin, Amerikai Egyesült Államok

földrajzi szélesség: 45-08-54N, földrajzi hosszúság: 092-32-17W, magasság: 304 m

Jelenlegi meteorológiai megfigyelések

A jelentés 30 perccel ezelõtt készült, 11:35 UTC
Szélcsend
Hőmérséklet -2°C
Páratartalom 93%
Légköri nyomás 1019 hPa
Látótávolság: 16.1 km
Derült ég

METAR: KRNH 231135Z AUTO 00000KT 10SM CLR M02/M03 A3009 RMK AO2 T10221030

Idő: 07:05 (12:05 UTC)

Előrejelzés

A jelentés 30 perccel ezelõtt készült, 11:35 UTC
Az előrejelzés 23-én 12 óra UTC és 24-én 12 óra UTC között érvényes
Különbözõ irányokból fújó szél 3 kt
Látótávolság: 10 km
Derült ég
24-én 0800 órától UTC szerint
Keleti szél 6 kt
Látótávolság: 10 km
Derült ég

TAF: KRNH 231135Z 2312/2412 VRB03KT P6SM SKC FM240800 08006KT P6SM SKC

Meteorológiai megfigyelések és előrejelzések több, mint 4000 repülőtéren (METAR és TAF jelentéseket).

A térképen piros és sárga pontok jelzik az elérhető meteorológiai állomásokat.

Mozgassa az egeret a pont fölött, hogy megjelenjen az állomás neve.

Azután kattintson az időjárási megfigyelések és előrejelzések megtekintéséhez.

A térkép megváltoztatása: kattintson a fekete keresztel jelölt zöld gombra ráközelítéshez, a vonallal jelölt zöld gombra távolításhoz, vagy a zöld nyilakra a szomszédos térképek eléréséhez.


METAR-TAF: